Time;durP1;ratioP1;P1;durP2;ratioP2;P2;SDS_P1;SDS_P2;PMS_P1;PMS_P2;Temp;Humidity;BMP_temperature;BMP_pressure;BME280_temperature;BME280_humidity;BME280_pressure;Samples;Min_cycle;Max_cycle;Signal;HPM_P1;HPM_P2
2023/03/18 00:01:43;;;;;;;10.63;6.20;;;10.60;99.90;;;;;;5031805;28;20038;-62
2023/03/18 00:04:10;;;;;;;11.35;6.50;;;10.60;99.90;;;;;;5033003;28;20045;-62
2023/03/18 00:06:39;;;;;;;9.57;5.85;;;10.60;99.90;;;;;;5032851;28;20546;-62
2023/03/18 00:09:06;;;;;;;14.73;6.35;;;10.60;99.90;;;;;;5033072;28;20041;-62
2023/03/18 00:11:33;;;;;;;10.82;5.70;;;10.50;99.90;;;;;;5032178;28;20122;-62
2023/03/18 00:14:00;;;;;;;12.45;5.82;;;10.50;99.90;;;;;;5033028;28;20134;-62
2023/03/18 00:16:26;;;;;;;13.05;6.18;;;10.50;99.90;;;;;;5033528;28;20076;-62
2023/03/18 00:18:53;;;;;;;12.32;6.05;;;10.50;99.90;;;;;;5031810;28;20050;-62
2023/03/18 00:21:22;;;;;;;12.57;5.20;;;10.50;99.90;;;;;;5032750;28;20558;-62
2023/03/18 00:23:49;;;;;;;13.85;5.72;;;10.50;99.90;;;;;;5031565;28;20107;-62
2023/03/18 00:26:16;;;;;;;9.73;5.57;;;10.50;99.90;;;;;;5032294;28;20041;-62
2023/03/18 00:28:43;;;;;;;10.57;5.50;;;10.50;99.90;;;;;;5031626;28;20363;-62
2023/03/18 00:31:10;;;;;;;12.68;5.40;;;10.50;99.90;;;;;;5032665;28;20041;-62
2023/03/18 00:33:36;;;;;;;10.32;5.18;;;10.50;99.90;;;;;;5031267;28;20440;-62
2023/03/18 00:36:05;;;;;;;10.23;5.60;;;10.40;99.90;;;;;;5031200;28;20087;-63
2023/03/18 00:38:32;;;;;;;12.18;5.78;;;10.30;99.90;;;;;;5032619;28;20037;-62
2023/03/18 00:41:17;;;;;;;14.93;5.90;;;10.30;99.90;;;;;;5014874;28;20436;-63
2023/03/18 00:43:51;;;;;;;12.38;5.38;;;10.20;99.90;;;;;;5032392;28;20114;-63
2023/03/18 00:46:18;;;;;;;10.50;4.70;;;10.20;99.90;;;;;;5031177;28;20076;-63
2023/03/18 00:48:45;;;;;;;14.20;6.40;;;10.10;99.90;;;;;;5031268;28;20092;-63
2023/03/18 00:51:15;;;;;;;14.27;5.82;;;10.10;99.90;;;;;;5030473;28;20042;-63
2023/03/18 00:53:43;;;;;;;18.67;5.70;;;10.00;99.90;;;;;;5031337;28;20049;-63
2023/03/18 00:56:11;;;;;;;11.25;5.47;;;10.00;99.90;;;;;;5018741;28;20053;-63
2023/03/18 00:58:38;;;;;;;11.18;5.18;;;9.90;99.90;;;;;;5020092;28;20110;-62
2023/03/18 01:01:05;;;;;;;12.40;5.80;;;9.90;99.90;;;;;;5035083;28;20049;-62
2023/03/18 01:03:33;;;;;;;15.38;5.38;;;9.90;99.90;;;;;;5033847;28;20052;-63
2023/03/18 01:06:01;;;;;;;13.18;5.63;;;9.90;99.90;;;;;;5036186;28;20038;-63
2023/03/18 01:08:29;;;;;;;13.13;5.53;;;9.80;99.90;;;;;;5034646;28;20041;-62
2023/03/18 01:10:56;;;;;;;11.63;5.45;;;9.80;99.90;;;;;;5033704;28;20128;-63
2023/03/18 01:13:24;;;;;;;13.45;5.85;;;9.80;99.90;;;;;;5035832;28;20432;-62
2023/03/18 01:15:51;;;;;;;14.32;5.97;;;9.80;99.90;;;;;;5035507;28;20069;-63
2023/03/18 01:18:18;;;;;;;15.05;5.65;;;9.80;99.90;;;;;;5035262;28;20045;-63
2023/03/18 01:20:45;;;;;;;15.93;5.60;;;9.70;99.90;;;;;;5034237;28;20051;-62
2023/03/18 01:23:13;;;;;;;11.82;5.13;;;9.70;99.90;;;;;;5033259;28;20112;-63
2023/03/18 01:25:43;;;;;;;14.82;5.97;;;9.70;99.90;;;;;;5034210;28;20065;-63
2023/03/18 01:28:14;;;;;;;11.80;5.53;;;9.70;99.90;;;;;;5034178;28;20045;-63
2023/03/18 01:30:41;;;;;;;10.95;5.18;;;9.60;99.90;;;;;;5034314;28;20042;-63
2023/03/18 01:33:08;;;;;;;11.10;5.85;;;9.60;99.90;;;;;;5035342;28;20504;-63
2023/03/18 01:35:35;;;;;;;12.25;5.50;;;9.60;99.90;;;;;;5035271;28;20045;-63
2023/03/18 01:38:03;;;;;;;14.82;5.60;;;9.50;99.90;;;;;;5033853;28;20080;-62
2023/03/18 01:40:30;;;;;;;11.55;5.15;;;9.50;99.90;;;;;;5033821;28;20475;-63
2023/03/18 01:42:58;;;;;;;15.20;6.20;;;9.50;99.90;;;;;;5033741;28;20125;-63
2023/03/18 01:45:30;;;;;;;14.88;5.53;;;9.50;99.90;;;;;;5033555;28;20376;-63
2023/03/18 01:47:59;;;;;;;11.80;4.80;;;9.50;99.90;;;;;;5034990;28;20380;-63
2023/03/18 01:50:27;;;;;;;13.70;4.80;;;9.50;99.90;;;;;;5034188;28;20390;-63
2023/03/18 01:52:53;;;;;;;14.20;5.05;;;9.60;99.90;;;;;;5033546;28;20045;-63
2023/03/18 01:55:20;;;;;;;12.73;4.72;;;9.60;99.90;;;;;;5033725;28;20038;-63
2023/03/18 01:57:48;;;;;;;13.77;4.75;;;9.60;99.90;;;;;;5033616;28;20463;-62
2023/03/18 02:00:15;;;;;;;14.30;5.00;;;9.70;99.90;;;;;;5033394;28;20045;-63
2023/03/18 02:02:44;;;;;;;11.25;5.43;;;9.80;99.90;;;;;;5033324;28;20038;-63
2023/03/18 02:05:11;;;;;;;16.10;5.50;;;9.80;99.90;;;;;;5033050;28;20948;-63
2023/03/18 02:07:38;;;;;;;15.60;5.53;;;9.90;99.90;;;;;;5033221;28;20045;-63
2023/03/18 02:10:05;;;;;;;12.63;5.95;;;9.90;99.90;;;;;;5033161;28;20049;-63
2023/03/18 02:12:32;;;;;;;16.73;6.05;;;10.00;99.90;;;;;;5033165;28;20069;-63
2023/03/18 02:15:00;;;;;;;18.23;6.60;;;10.00;99.90;;;;;;5033222;28;20056;-62
2023/03/18 02:17:28;;;;;;;15.82;5.93;;;10.00;99.90;;;;;;5033548;28;20080;-62
2023/03/18 02:19:54;;;;;;;18.40;6.55;;;10.10;99.90;;;;;;5033155;28;20045;-63
2023/03/18 02:22:21;;;;;;;18.35;6.68;;;10.10;99.90;;;;;;5032814;28;20052;-63
2023/03/18 02:24:51;;;;;;;16.33;6.35;;;10.10;99.90;;;;;;5033032;28;20392;-63
2023/03/18 02:27:18;;;;;;;15.15;6.95;;;10.00;99.90;;;;;;5032688;28;20049;-63
2023/03/18 02:29:45;;;;;;;16.77;7.38;;;10.00;99.90;;;;;;5033146;28;20370;-63
2023/03/18 02:32:16;;;;;;;14.57;6.75;;;10.00;99.90;;;;;;5032607;28;20049;-63
2023/03/18 02:34:43;;;;;;;15.88;7.20;;;10.00;99.90;;;;;;5032728;28;20053;-63
2023/03/18 02:37:10;;;;;;;18.27;7.03;;;10.00;99.90;;;;;;5032988;28;20408;-63
2023/03/18 02:39:39;;;;;;;16.92;7.63;;;10.00;99.90;;;;;;5032542;28;20045;-63
2023/03/18 02:42:07;;;;;;;13.50;6.68;;;10.00;99.90;;;;;;5032498;28;20500;-63
2023/03/18 02:44:34;;;;;;;16.70;7.50;;;10.10;99.90;;;;;;5032217;28;20045;-63
2023/03/18 02:47:36;;;;;;;15.65;7.13;;;10.10;99.90;;;;;;5027706;28;20041;-63
2023/03/18 02:50:03;;;;;;;15.10;7.32;;;10.20;99.90;;;;;;5033965;28;20045;-62
2023/03/18 02:52:30;;;;;;;17.80;7.18;;;10.20;99.90;;;;;;5032401;28;20041;-63
2023/03/18 02:54:58;;;;;;;14.27;7.20;;;10.20;99.90;;;;;;5032536;28;20050;-63
2023/03/18 02:57:26;;;;;;;17.70;7.70;;;10.20;99.90;;;;;;5031844;28;20041;-63
2023/03/18 02:59:54;;;;;;;12.70;6.35;;;10.20;99.90;;;;;;5032316;28;20049;-63
2023/03/18 03:02:21;;;;;;;15.23;6.63;;;10.20;99.90;;;;;;5032319;28;20037;-62
2023/03/18 03:04:48;;;;;;;15.75;6.75;;;10.30;99.90;;;;;;5032161;28;20119;-63
2023/03/18 03:07:17;;;;;;;17.08;6.72;;;10.30;99.90;;;;;;5032359;28;20400;-63
2023/03/18 03:09:48;;;;;;;14.45;6.65;;;10.30;99.90;;;;;;5032613;28;20046;-63
2023/03/18 03:12:18;;;;;;;13.35;6.65;;;10.30;99.90;;;;;;5031982;28;20449;-62
2023/03/18 03:14:50;;;;;;;18.67;7.78;;;10.20;99.90;;;;;;5032214;28;20085;-63
2023/03/18 03:17:18;;;;;;;15.70;6.93;;;10.20;99.90;;;;;;5032023;28;20056;-63
2023/03/18 03:19:45;;;;;;;18.05;6.55;;;10.10;99.90;;;;;;5033571;28;20099;-63
2023/03/18 03:22:13;;;;;;;12.00;6.90;;;10.20;99.90;;;;;;5033064;28;20057;-62
2023/03/18 03:24:39;;;;;;;16.40;6.68;;;10.10;99.90;;;;;;5031638;28;20040;-63
2023/03/18 03:27:06;;;;;;;15.93;6.95;;;10.20;99.90;;;;;;5033375;28;20033;-63
2023/03/18 03:29:33;;;;;;;18.92;7.53;;;10.10;99.90;;;;;;5032074;28;20158;-63
2023/03/18 03:32:00;;;;;;;15.77;6.53;;;10.20;99.90;;;;;;5032263;28;20052;-63
2023/03/18 03:34:28;;;;;;;14.93;6.65;;;10.20;99.90;;;;;;5031832;28;20038;-62
2023/03/18 03:36:55;;;;;;;15.68;7.18;;;10.20;99.90;;;;;;5032990;28;20049;-62
2023/03/18 03:39:24;;;;;;;17.05;6.80;;;10.20;99.90;;;;;;5031581;28;20049;-63
2023/03/18 03:41:51;;;;;;;18.88;6.97;;;10.20;99.90;;;;;;5031674;28;20500;-63
2023/03/18 03:44:18;;;;;;;17.75;7.40;;;10.20;99.90;;;;;;5032742;28;20544;-62
2023/03/18 03:46:47;;;;;;;17.05;6.78;;;10.20;99.90;;;;;;5031270;28;20168;-63
2023/03/18 03:49:14;;;;;;;15.88;6.65;;;10.10;99.90;;;;;;5033078;28;20042;-62
2023/03/18 03:51:41;;;;;;;16.00;6.93;;;10.10;99.90;;;;;;5031842;28;20579;-62
2023/03/18 03:54:08;;;;;;;15.98;6.70;;;10.00;99.90;;;;;;5031649;28;20469;-63
2023/03/18 03:56:35;;;;;;;11.27;6.97;;;10.00;99.90;;;;;;5033044;28;20045;-63
2023/03/18 03:59:03;;;;;;;19.05;7.10;;;10.00;99.90;;;;;;5031617;28;20103;-63
2023/03/18 04:01:50;;;;;;;11.68;6.00;;;9.90;99.90;;;;;;5032920;28;20056;-62
2023/03/18 04:04:17;;;;;;;14.00;6.55;;;9.90;99.90;;;;;;5032716;28;20053;-63
2023/03/18 04:06:45;;;;;;;15.43;6.85;;;10.00;99.90;;;;;;5031738;28;20473;-62
2023/03/18 04:09:12;;;;;;;9.95;5.80;;;10.00;99.90;;;;;;5031442;28;20435;-62
2023/03/18 04:11:38;;;;;;;14.98;6.75;;;10.10;99.90;;;;;;5031532;28;20092;-62
2023/03/18 04:14:06;;;;;;;11.60;6.03;;;10.10;99.90;;;;;;5031532;28;20056;-63
2023/03/18 04:16:32;;;;;;;13.13;5.78;;;10.20;99.90;;;;;;5032765;28;20037;-63
2023/03/18 04:18:59;;;;;;;11.70;6.63;;;10.20;99.90;;;;;;5031885;28;20073;-63
2023/03/18 04:21:26;;;;;;;12.73;7.13;;;10.20;99.90;;;;;;5032708;28;20042;-63
2023/03/18 04:23:54;;;;;;;13.90;6.57;;;10.30;99.90;;;;;;5031331;28;20069;-63
2023/03/18 04:26:22;;;;;;;18.42;6.88;;;10.30;99.90;;;;;;5032895;28;20045;-62
2023/03/18 04:28:51;;;;;;;13.20;6.05;;;10.30;99.90;;;;;;5032097;28;20049;-65
2023/03/18 04:31:20;;;;;;;11.23;6.40;;;10.30;99.90;;;;;;5035054;28;20127;-62
2023/03/18 04:33:47;;;;;;;19.30;6.75;;;10.30;99.90;;;;;;5036141;28;20067;-62
2023/03/18 04:36:14;;;;;;;11.23;5.78;;;10.40;99.90;;;;;;5035160;28;20087;-63
2023/03/18 04:38:41;;;;;;;17.73;6.25;;;10.40;99.90;;;;;;5036587;28;20041;-63
2023/03/18 04:41:07;;;;;;;13.02;5.80;;;10.40;99.90;;;;;;5036525;28;20049;-63
2023/03/18 04:43:34;;;;;;;17.27;6.13;;;10.40;99.90;;;;;;5036335;28;20059;-63
2023/03/18 04:46:01;;;;;;;9.00;5.43;;;10.40;99.90;;;;;;5034229;28;20037;-63
2023/03/18 04:48:29;;;;;;;12.75;5.70;;;10.40;99.90;;;;;;5035120;28;20050;-63
2023/03/18 04:50:58;;;;;;;16.60;5.82;;;10.40;99.90;;;;;;5034622;28;20045;-63
2023/03/18 04:53:29;;;;;;;13.85;6.07;;;10.40;99.90;;;;;;5034829;28;20046;-63
2023/03/18 04:55:56;;;;;;;14.25;5.65;;;10.40;99.90;;;;;;5034844;28;20447;-63
2023/03/18 04:58:30;;;;;;;11.65;4.93;;;10.50;99.90;;;;;;5034553;28;20045;-62
2023/03/18 05:01:06;;;;;;;11.00;4.75;;;10.50;99.90;;;;;;5034613;28;20057;-63
2023/03/18 05:03:36;;;;;;;13.15;5.13;;;10.40;99.90;;;;;;5035568;28;20128;-63
2023/03/18 05:06:04;;;;;;;12.30;5.03;;;10.50;99.90;;;;;;5034501;28;20037;-63
2023/03/18 05:08:45;;;;;;;14.27;5.10;;;10.40;99.90;;;;;;5034766;28;20049;-63
2023/03/18 05:11:13;;;;;;;12.88;4.75;;;10.50;99.90;;;;;;5034355;28;20063;-63
2023/03/18 05:13:40;;;;;;;11.57;5.63;;;10.50;99.90;;;;;;5035621;28;20512;-63
2023/03/18 05:16:08;;;;;;;13.25;4.53;;;10.50;99.90;;;;;;5034358;28;20228;-63
2023/03/18 05:18:36;;;;;;;12.65;5.07;;;10.50;99.90;;;;;;5034305;28;20119;-63
2023/03/18 05:21:06;;;;;;;9.90;5.00;;;10.50;99.90;;;;;;5034477;28;20049;-63
2023/03/18 05:23:33;;;;;;;14.82;5.00;;;10.50;99.90;;;;;;5017485;28;20464;-62
2023/03/18 05:26:00;;;;;;;10.73;4.65;;;10.50;99.90;;;;;;5034263;28;20046;-63
2023/03/18 05:28:28;;;;;;;14.25;5.20;;;10.60;99.90;;;;;;5034101;28;20424;-63
2023/03/18 05:31:09;;;;;;;15.10;5.07;;;10.60;99.90;;;;;;5034437;28;20041;-63
2023/03/18 05:33:41;;;;;;;11.38;4.80;;;10.60;99.90;;;;;;5033791;28;20049;-63
2023/03/18 05:36:09;;;;;;;10.80;4.82;;;10.60;99.90;;;;;;5033891;28;20083;-63
2023/03/18 05:38:45;;;;;;;12.93;5.07;;;10.60;99.90;;;;;;5034194;28;20051;-63
2023/03/18 05:41:12;;;;;;;9.93;5.03;;;10.60;99.90;;;;;;5032733;28;20052;-63
2023/03/18 05:43:41;;;;;;;11.05;5.40;;;10.60;99.90;;;;;;5033556;28;20040;-63
2023/03/18 05:46:08;;;;;;;15.00;5.53;;;10.60;99.90;;;;;;5034034;28;20041;-63
2023/03/18 05:48:53;;;;;;;11.70;5.03;;;10.60;99.90;;;;;;5033787;28;20519;-63
2023/03/18 05:51:23;;;;;;;16.85;6.20;;;10.60;99.90;;;;;;5033860;28;20642;-63
2023/03/18 05:53:50;;;;;;;11.45;6.03;;;10.60;99.90;;;;;;5033784;28;20407;-63
2023/03/18 05:56:31;;;;;;;16.88;6.47;;;10.60;99.90;;;;;;5033650;28;20069;-62
2023/03/18 05:59:02;;;;;;;11.95;5.53;;;10.60;99.90;;;;;;5033565;28;20140;-64
2023/03/18 06:01:41;;;;;;;14.68;5.55;;;10.50;99.90;;;;;;5033482;28;20136;-62
2023/03/18 06:04:09;;;;;;;15.32;5.65;;;10.50;99.90;;;;;;5033318;28;20428;-63
2023/03/18 06:06:39;;;;;;;15.77;6.13;;;10.50;99.90;;;;;;5033211;28;20038;-63
2023/03/18 06:09:06;;;;;;;14.68;5.85;;;10.50;99.90;;;;;;5033432;28;20056;-63
2023/03/18 06:11:33;;;;;;;17.10;6.35;;;10.50;99.90;;;;;;5033238;28;20053;-63
2023/03/18 06:14:00;;;;;;;11.98;4.97;;;10.50;99.90;;;;;;5033398;28;20053;-63
2023/03/18 06:16:27;;;;;;;13.52;4.85;;;10.40;99.90;;;;;;5033644;28;20531;-63
2023/03/18 06:18:55;;;;;;;15.38;5.30;;;10.40;99.90;;;;;;5033381;28;20088;-63
2023/03/18 06:21:22;;;;;;;14.65;5.22;;;10.40;99.90;;;;;;5034796;28;20432;-63
2023/03/18 06:23:48;;;;;;;13.68;4.95;;;10.40;99.90;;;;;;5034449;28;20056;-63
2023/03/18 06:26:16;;;;;;;12.05;4.22;;;10.40;99.90;;;;;;5033475;28;20049;-63
2023/03/18 06:28:46;;;;;;;16.13;4.28;;;10.40;99.90;;;;;;5033174;28;20136;-63
2023/03/18 06:31:14;;;;;;;11.15;4.28;;;10.40;99.90;;;;;;5033360;28;20045;-63
2023/03/18 06:33:41;;;;;;;11.50;3.70;;;10.40;99.90;;;;;;5033226;28;20084;-63
2023/03/18 06:36:10;;;;;;;12.20;3.58;;;10.40;99.90;;;;;;5032995;28;20053;-63
2023/03/18 06:38:43;;;;;;;10.30;3.80;;;10.40;99.90;;;;;;5033182;28;20068;-63
2023/03/18 06:41:10;;;;;;;9.02;3.92;;;10.40;99.90;;;;;;5032961;28;20492;-63
2023/03/18 06:43:43;;;;;;;10.20;3.90;;;10.40;99.90;;;;;;5032942;28;20088;-63
2023/03/18 06:46:10;;;;;;;10.43;3.22;;;10.40;99.90;;;;;;5030731;28;20519;-63
2023/03/18 06:48:39;;;;;;;8.38;2.67;;;10.40;99.90;;;;;;5032923;28;20041;-63
2023/03/18 06:51:07;;;;;;;9.27;3.35;;;10.50;99.90;;;;;;5032868;28;20046;-62
2023/03/18 06:53:38;;;;;;;9.65;2.67;;;10.50;99.90;;;;;;5032626;28;20111;-63
2023/03/18 06:56:06;;;;;;;10.18;2.60;;;10.50;99.90;;;;;;5032741;28;20382;-63
2023/03/18 06:58:44;;;;;;;8.95;2.78;;;10.50;99.90;;;;;;5027001;28;20132;-63
2023/03/18 07:01:12;;;;;;;10.88;3.00;;;10.50;99.90;;;;;;5032557;28;20508;-63
2023/03/18 07:03:42;;;;;;;9.50;3.00;;;10.50;99.90;;;;;;5032479;28;20042;-63
2023/03/18 07:06:10;;;;;;;11.20;3.28;;;10.50;99.90;;;;;;5032721;28;20072;-63
2023/03/18 07:08:39;;;;;;;9.68;3.20;;;10.60;99.90;;;;;;5032997;28;20068;-63
2023/03/18 07:11:06;;;;;;;9.32;3.25;;;10.50;99.90;;;;;;5033936;28;20092;-63
2023/03/18 07:13:36;;;;;;;8.07;2.83;;;10.50;99.90;;;;;;5032591;28;20049;-63
2023/03/18 07:16:07;;;;;;;9.90;3.00;;;10.60;99.90;;;;;;5032498;28;20123;-63
2023/03/18 07:18:34;;;;;;;8.30;3.75;;;10.60;99.90;;;;;;5032315;28;20052;-63
2023/03/18 07:21:00;;;;;;;11.52;3.85;;;10.60;99.90;;;;;;5032451;28;20389;-63
2023/03/18 07:23:27;;;;;;;7.38;2.95;;;10.60;99.90;;;;;;5033119;28;20060;-63
2023/03/18 07:25:56;;;;;;;8.55;3.00;;;10.60;99.90;;;;;;5015941;28;20362;-63
2023/03/18 07:28:23;;;;;;;9.60;3.10;;;10.60;99.90;;;;;;5033674;28;20046;-63
2023/03/18 07:30:52;;;;;;;8.88;3.00;;;10.60;99.90;;;;;;5031841;28;20041;-63
2023/03/18 07:33:19;;;;;;;8.43;3.30;;;10.60;99.90;;;;;;5033247;28;20041;-63
2023/03/18 07:35:47;;;;;;;7.10;3.28;;;10.60;99.90;;;;;;5031912;28;20450;-63
2023/03/18 07:38:14;;;;;;;9.00;3.58;;;10.60;99.90;;;;;;5033153;28;20065;-63
2023/03/18 07:40:40;;;;;;;9.45;3.83;;;10.50;99.90;;;;;;5033449;28;20128;-63
2023/03/18 07:43:08;;;;;;;10.40;3.67;;;10.50;99.90;;;;;;5033226;28;20485;-63
2023/03/18 07:45:34;;;;;;;8.82;3.63;;;10.50;99.90;;;;;;5033484;28;20436;-63
2023/03/18 07:48:01;;;;;;;11.55;3.47;;;10.50;99.90;;;;;;5033086;28;20069;-64
2023/03/18 07:50:28;;;;;;;8.85;3.28;;;10.50;99.90;;;;;;5033088;28;20046;-63
2023/03/18 07:52:55;;;;;;;7.05;2.70;;;10.50;99.90;;;;;;5031525;28;20049;-63
2023/03/18 07:55:23;;;;;;;5.20;2.80;;;10.40;99.90;;;;;;5032910;28;20368;-63
2023/03/18 07:57:50;;;;;;;6.38;2.38;;;10.40;99.90;;;;;;5031167;28;20049;-63
2023/03/18 08:00:16;;;;;;;6.57;2.65;;;10.40;99.90;;;;;;5033084;28;20103;-63
2023/03/18 08:02:43;;;;;;;5.38;2.08;;;10.40;99.90;;;;;;5032982;28;20388;-63
2023/03/18 08:05:10;;;;;;;7.07;2.22;;;10.50;99.90;;;;;;5034604;28;20045;-63
2023/03/18 08:07:37;;;;;;;5.80;2.17;;;10.50;99.90;;;;;;5037168;28;20103;-63
2023/03/18 08:10:03;;;;;;;5.28;2.17;;;10.50;99.90;;;;;;5037201;28;20061;-63
2023/03/18 08:12:30;;;;;;;4.53;2.20;;;10.50;99.90;;;;;;5035495;28;20045;-63
2023/03/18 08:15:17;;;;;;;4.22;1.70;;;10.50;99.90;;;;;;5037203;28;20116;-63
2023/03/18 08:17:44;;;;;;;5.28;1.70;;;10.50;99.90;;;;;;5037144;28;20124;-64
2023/03/18 08:20:11;;;;;;;4.75;1.45;;;10.50;99.90;;;;;;5036883;28;20049;-63
2023/03/18 08:22:37;;;;;;;4.63;1.20;;;10.50;99.90;;;;;;5036614;28;20080;-63
2023/03/18 08:25:04;;;;;;;2.80;1.58;;;10.50;99.90;;;;;;5036733;28;20037;-63
2023/03/18 08:27:31;;;;;;;3.72;1.20;;;10.50;99.90;;;;;;5037163;28;20045;-64
2023/03/18 08:29:59;;;;;;;4.03;1.17;;;10.50;99.90;;;;;;5036612;28;20049;-63
2023/03/18 08:32:29;;;;;;;5.47;1.50;;;10.50;99.90;;;;;;5036687;28;20452;-64
2023/03/18 08:34:56;;;;;;;3.22;1.30;;;10.60;99.90;;;;;;5036573;28;20085;-64
2023/03/18 08:37:23;;;;;;;6.10;1.75;;;10.60;99.90;;;;;;5035206;28;20045;-64
2023/03/18 08:39:50;;;;;;;2.83;1.40;;;10.60;99.90;;;;;;5036715;28;20440;-64
2023/03/18 08:42:17;;;;;;;6.60;1.45;;;10.70;99.90;;;;;;5036221;28;20123;-64
2023/03/18 08:44:44;;;;;;;4.80;1.33;;;10.70;99.90;;;;;;5036234;28;20038;-64
2023/03/18 08:47:11;;;;;;;4.32;1.48;;;10.70;99.90;;;;;;5036369;28;20040;-64
2023/03/18 08:49:38;;;;;;;3.83;1.17;;;10.80;99.90;;;;;;5036137;28;20038;-64
2023/03/18 08:52:05;;;;;;;5.25;2.13;;;10.80;99.90;;;;;;5036325;28;20545;-63
2023/03/18 08:54:32;;;;;;;3.42;1.58;;;10.80;99.90;;;;;;5034893;28;20428;-64
2023/03/18 08:56:59;;;;;;;3.28;1.33;;;10.90;99.90;;;;;;5034955;28;20041;-64
2023/03/18 08:59:26;;;;;;;3.67;1.30;;;10.90;99.90;;;;;;5034755;28;20065;-64
2023/03/18 09:01:52;;;;;;;4.57;1.40;;;10.90;99.90;;;;;;5035996;28;20041;-63
2023/03/18 09:04:19;;;;;;;3.22;1.40;;;11.00;99.90;;;;;;5036031;28;20140;-64
2023/03/18 09:06:47;;;;;;;4.57;1.60;;;11.00;99.90;;;;;;5035922;28;20045;-64
2023/03/18 09:09:14;;;;;;;4.45;1.55;;;11.10;99.90;;;;;;5035988;28;20045;-64
2023/03/18 09:11:41;;;;;;;4.45;1.83;;;11.10;99.90;;;;;;5036052;28;20484;-63
2023/03/18 09:14:07;;;;;;;5.10;2.03;;;11.20;99.90;;;;;;5035923;28;20045;-64
2023/03/18 09:16:35;;;;;;;5.47;1.67;;;11.30;99.90;;;;;;5035627;28;20045;-64
2023/03/18 09:19:02;;;;;;;4.60;1.88;;;11.30;99.90;;;;;;5038175;28;20408;-63
2023/03/18 09:21:30;;;;;;;5.47;2.17;;;11.40;99.90;;;;;;5035548;28;20405;-63
2023/03/18 09:23:57;;;;;;;4.65;2.08;;;11.50;99.90;;;;;;5035371;28;20057;-64
2023/03/18 09:26:24;;;;;;;4.78;1.40;;;11.50;99.90;;;;;;5035743;28;20038;-63
2023/03/18 09:28:51;;;;;;;3.60;1.45;;;11.50;99.90;;;;;;5034225;28;20061;-63
2023/03/18 09:31:18;;;;;;;2.15;1.30;;;11.40;99.90;;;;;;5035800;28;20041;-63
2023/03/18 09:33:45;;;;;;;4.32;1.60;;;11.40;99.90;;;;;;5035352;28;20064;-64
2023/03/18 09:36:12;;;;;;;3.63;1.40;;;11.40;99.90;;;;;;5035592;28;20040;-64
2023/03/18 09:38:40;;;;;;;3.70;1.52;;;11.40;99.90;;;;;;5035284;28;20041;-64
2023/03/18 09:41:07;;;;;;;4.15;1.50;;;11.40;99.90;;;;;;5034327;28;20414;-64
2023/03/18 09:43:34;;;;;;;4.18;1.50;;;11.50;99.90;;;;;;5035419;28;20115;-64
2023/03/18 09:46:01;;;;;;;3.95;1.60;;;11.50;99.90;;;;;;5035402;28;20033;-64
2023/03/18 09:48:28;;;;;;;4.28;1.40;;;11.60;99.90;;;;;;5031537;28;20037;-64
2023/03/18 09:50:55;;;;;;;2.65;1.25;;;11.60;99.90;;;;;;5035471;28;20460;-64
2023/03/18 09:53:22;;;;;;;2.30;1.33;;;11.60;99.90;;;;;;5034719;28;20132;-64
2023/03/18 09:55:49;;;;;;;3.85;1.27;;;11.60;99.90;;;;;;5034805;28;20052;-64
2023/03/18 09:58:16;;;;;;;6.45;1.35;;;11.60;99.90;;;;;;5034959;28;20135;-64
2023/03/18 10:00:43;;;;;;;3.20;1.20;;;11.50;99.90;;;;;;5034420;28;20057;-63
2023/03/18 10:03:09;;;;;;;2.20;1.10;;;11.60;99.90;;;;;;5033517;28;20131;-64
2023/03/18 10:05:36;;;;;;;2.75;1.30;;;11.60;99.90;;;;;;5034182;28;20045;-64
2023/03/18 10:08:03;;;;;;;5.75;1.60;;;11.60;99.90;;;;;;5034708;28;20485;-64
2023/03/18 10:10:30;;;;;;;4.97;2.17;;;11.70;99.90;;;;;;5034358;28;20049;-64
2023/03/18 10:12:57;;;;;;;2.92;1.15;;;11.70;99.90;;;;;;5034978;28;20065;-64
2023/03/18 10:15:23;;;;;;;3.65;1.08;;;11.70;99.90;;;;;;5034004;28;20080;-64
2023/03/18 10:17:51;;;;;;;3.45;1.33;;;11.70;99.90;;;;;;5034722;28;20103;-64
2023/03/18 10:20:18;;;;;;;3.03;1.60;;;11.70;99.90;;;;;;5033847;28;20381;-64
2023/03/18 10:22:44;;;;;;;3.40;1.20;;;11.70;99.90;;;;;;5033794;28;20134;-63
2023/03/18 10:25:11;;;;;;;2.35;1.48;;;11.70;99.90;;;;;;5034789;28;20496;-63
2023/03/18 10:27:38;;;;;;;4.22;1.58;;;11.70;99.90;;;;;;5033353;28;20124;-63
2023/03/18 10:30:05;;;;;;;3.58;1.33;;;11.80;99.90;;;;;;5034313;28;20041;-63
2023/03/18 10:32:31;;;;;;;3.13;1.30;;;11.80;99.90;;;;;;5033897;28;20034;-62
2023/03/18 10:35:15;;;;;;;3.00;1.10;;;11.80;99.90;;;;;;5034929;28;20041;-63
2023/03/18 10:37:42;;;;;;;2.67;0.88;;;11.90;99.90;;;;;;5033944;28;20065;-63
2023/03/18 10:40:09;;;;;;;4.07;1.60;;;11.80;99.90;;;;;;5034806;28;20059;-63
2023/03/18 10:42:36;;;;;;;4.50;2.60;;;11.80;99.90;;;;;;5032800;28;20091;-63
2023/03/18 10:45:03;;;;;;;3.35;1.70;;;11.80;99.90;;;;;;5032147;28;20041;-63
2023/03/18 10:47:29;;;;;;;3.55;1.73;;;11.80;99.90;;;;;;5032860;28;20439;-63
2023/03/18 10:49:57;;;;;;;3.50;1.70;;;11.90;99.90;;;;;;5033439;28;20052;-63
2023/03/18 10:52:23;;;;;;;2.72;1.27;;;11.90;99.90;;;;;;5033707;28;20124;-63
2023/03/18 10:54:51;;;;;;;2.67;0.93;;;11.90;99.90;;;;;;5031564;28;20053;-63
2023/03/18 10:57:18;;;;;;;2.38;0.90;;;11.80;99.90;;;;;;5027641;28;20053;-63
2023/03/18 10:59:46;;;;;;;2.00;0.90;;;11.90;99.90;;;;;;5034062;28;20486;-63
2023/03/18 11:02:13;;;;;;;3.50;1.17;;;11.90;99.90;;;;;;5033397;28;20077;-64
2023/03/18 11:04:41;;;;;;;2.55;0.90;;;11.90;99.90;;;;;;5032895;28;20170;-63
2023/03/18 11:07:07;;;;;;;2.60;1.20;;;12.00;99.90;;;;;;5033849;28;20042;-64
2023/03/18 11:09:35;;;;;;;2.08;1.00;;;12.10;99.90;;;;;;5033151;28;20120;-64
2023/03/18 11:12:02;;;;;;;2.88;1.23;;;12.20;99.90;;;;;;5033768;28;20487;-64
2023/03/18 11:14:28;;;;;;;2.53;1.08;;;12.30;99.90;;;;;;5033603;28;20400;-64
2023/03/18 11:16:55;;;;;;;2.42;0.98;;;12.40;99.90;;;;;;5033626;28;20069;-64
2023/03/18 11:19:22;;;;;;;3.05;1.30;;;12.50;99.90;;;;;;5033793;28;20465;-64
2023/03/18 11:21:49;;;;;;;2.80;0.82;;;12.60;99.90;;;;;;5033405;28;20128;-63
2023/03/18 11:24:33;;;;;;;5.38;1.20;;;12.70;99.90;;;;;;5029796;28;20485;-63
2023/03/18 11:27:00;;;;;;;4.80;1.15;;;12.80;99.90;;;;;;5031940;28;20056;-63
2023/03/18 11:29:27;;;;;;;2.10;0.70;;;12.90;99.90;;;;;;5033440;28;20076;-63
2023/03/18 11:31:56;;;;;;;1.63;0.90;;;13.00;99.90;;;;;;5033078;28;20553;-63
2023/03/18 11:34:23;;;;;;;1.70;0.90;;;13.10;99.90;;;;;;5033187;28;20045;-63
2023/03/18 11:36:50;;;;;;;2.00;0.85;;;13.10;99.90;;;;;;5033260;28;20488;-63
2023/03/18 11:39:18;;;;;;;2.35;0.63;;;13.10;99.90;;;;;;5033223;28;20076;-62
2023/03/18 11:41:45;;;;;;;2.15;0.85;;;13.00;99.90;;;;;;5031155;28;20041;-63
2023/03/18 11:44:11;;;;;;;2.15;0.77;;;13.00;99.90;;;;;;5024992;28;20116;-63
2023/03/18 11:46:38;;;;;;;3.17;0.70;;;13.00;99.90;;;;;;5031849;28;20096;-63
2023/03/18 11:49:05;;;;;;;2.63;0.93;;;13.00;99.90;;;;;;5032999;28;20069;-63
2023/03/18 11:51:32;;;;;;;1.65;0.50;;;13.00;99.90;;;;;;5033059;28;20052;-63
2023/03/18 11:53:59;;;;;;;2.25;0.70;;;13.10;99.90;;;;;;5033058;28;20038;-63
2023/03/18 11:56:26;;;;;;;1.23;0.60;;;13.20;99.90;;;;;;5032483;28;20045;-63
2023/03/18 11:58:53;;;;;;;1.60;0.50;;;13.30;99.90;;;;;;5032835;28;20073;-63
2023/03/18 12:01:20;;;;;;;1.13;0.50;;;13.40;99.90;;;;;;5033228;28;20049;-63
2023/03/18 12:03:47;;;;;;;1.83;0.70;;;13.40;99.90;;;;;;5033015;28;20041;-62
2023/03/18 12:06:15;;;;;;;1.27;0.43;;;13.40;99.90;;;;;;5033058;28;20034;-63
2023/03/18 12:08:42;;;;;;;0.90;0.50;;;13.40;99.90;;;;;;5032906;28;20441;-63
2023/03/18 12:11:09;;;;;;;1.98;0.50;;;13.40;99.90;;;;;;5029871;28;20056;-63
2023/03/18 12:13:35;;;;;;;2.08;0.40;;;13.40;99.90;;;;;;5018184;28;20576;-65
2023/03/18 12:16:03;;;;;;;1.25;0.50;;;13.40;99.90;;;;;;5032786;28;20045;-63
2023/03/18 12:18:30;;;;;;;1.90;0.50;;;13.40;99.90;;;;;;5032965;28;20080;-63
2023/03/18 12:20:56;;;;;;;1.05;0.50;;;13.40;99.90;;;;;;5032926;28;20503;-63
2023/03/18 12:23:23;;;;;;;1.92;0.50;;;13.40;99.90;;;;;;5029479;28;20081;-62
2023/03/18 12:25:51;;;;;;;1.25;0.50;;;13.30;99.90;;;;;;5020273;28;20233;-63
2023/03/18 12:28:18;;;;;;;1.10;0.50;;;13.40;99.90;;;;;;5023938;28;20121;-64
2023/03/18 12:30:45;;;;;;;1.95;0.55;;;13.40;99.90;;;;;;5025754;28;20053;-63
2023/03/18 12:33:13;;;;;;;1.45;0.60;;;13.50;99.90;;;;;;5027885;28;20061;-64
2023/03/18 12:35:40;;;;;;;1.38;0.47;;;13.50;99.90;;;;;;5020443;28;20050;-62
2023/03/18 12:38:07;;;;;;;1.48;0.38;;;13.60;99.90;;;;;;5032814;28;20045;-62
2023/03/18 12:40:34;;;;;;;1.73;0.57;;;13.70;99.90;;;;;;5024498;28;20044;-63
2023/03/18 12:43:01;;;;;;;1.50;0.60;;;13.80;99.90;;;;;;5022302;28;20129;-64
2023/03/18 12:45:28;;;;;;;3.00;1.20;;;13.80;99.90;;;;;;5028500;28;20044;-63
2023/03/18 12:47:55;;;;;;;2.20;0.70;;;13.80;99.90;;;;;;5028540;28;20095;-63